This is the latest recevied weather packets stored in our database for station/object W4CKA. If no packets are shown the sender has not sent any weather packets the latest 10 day(s).
| Time | Temp. | Humidity | Pressure | Rain* | Wind** | Luminosity | Snow |
|---|---|---|---|---|---|---|---|
| 1777789161 | 5° C | 87% | 1060 hPa | 0 mm | - | 0 W/m² | - |
| 1777788558 | 5° C | 88% | 1059.9 hPa | 0 mm | - | 0 W/m² | - |
| 1777787954 | 5.56° C | 87% | 1060.1 hPa | 0 mm | - | 0 W/m² | - |
| 1777787352 | 5.56° C | 86% | 1059.9 hPa | 0 mm | - | 0 W/m² | - |
| 1777786751 | 6.11° C | 84% | 1060 hPa | 0 mm | - | 0 W/m² | - |
| 1777786150 | 5.56° C | 86% | 1059.9 hPa | 0 mm | - | 0 W/m² | - |
| 1777785550 | 5.56° C | 85% | 1060 hPa | 0 mm | - | 0 W/m² | - |
| 1777784949 | 6.11° C | 83% | 1059.8 hPa | 0 mm | - | 0 W/m² | - |
| 1777784348 | 6.11° C | 84% | 1059.7 hPa | 0 mm | - | 0 W/m² | - |
| 1777783748 | 6.67° C | 81% | 1059.7 hPa | 0 mm | - | 0 W/m² | - |
| 1777783148 | 6.67° C | 80% | 1059.5 hPa | 0 mm | - | 0 W/m² | - |
| 1777782546 | 7.22° C | 80% | 1059.4 hPa | 0 mm | - | 0 W/m² | - |
| 1777781945 | 7.22° C | 76% | 1059.2 hPa | 0 mm | - | 0 W/m² | - |
| 1777781345 | 7.78° C | 74% | 1059.2 hPa | 0 mm | - | 0 W/m² | - |
| 1777780746 | 6.67° C | 80% | 1059.3 hPa | 0 mm | - | 0 W/m² | - |
| 1777780146 | 6.67° C | 80% | 1059.3 hPa | 0 mm | - | 0 W/m² | - |
| 1777779540 | 6.67° C | 79% | 1059.5 hPa | 0 mm | - | 0 W/m² | - |
| 1777778935 | 6.67° C | 77% | 1059.4 hPa | 0 mm | - | 0 W/m² | - |
| 1777778331 | 7.22° C | 76% | 1059.3 hPa | 0 mm | - | 0 W/m² | - |
| 1777777731 | 7.78° C | 71% | 1059.2 hPa | 0 mm | - | 0 W/m² | - |
| 1777777129 | 8.33° C | 69% | 1059.2 hPa | 0 mm | - | 0 W/m² | - |
| 1777776524 | 8.33° C | 67% | 1059 hPa | 0 mm | - | 0 W/m² | - |
| 1777775923 | 8.89° C | 64% | 1059 hPa | 0 mm | - | 0 W/m² | - |
| 1777775323 | 8.89° C | 67% | 1058.8 hPa | 0 mm | - | 0 W/m² | - |
| 1777774720 | 8.33° C | 71% | 1058.9 hPa | 0 mm | - | 0 W/m² | - |
* Rain latest hour (hover to see other rain measurements)
** Current wind speed in m/s (hover to see current wind gust speed)